Time;durP1;ratioP1;P1;durP2;ratioP2;P2;SDS_P1;SDS_P2;PMS_P1;PMS_P2;Temp;Humidity;BMP_temperature;BMP_pressure;BME280_temperature;BME280_humidity;BME280_pressure;Samples;Min_cycle;Max_cycle;Signal;HPM_P1;HPM_P2
2022/07/09 00:01:58;;;;;;;7.18;3.47;;;;;;;;;;5024326;28;20037;-57
2022/07/09 00:04:23;;;;;;;6.15;3.60;;;;;;;;;;5022940;28;20124;-57
2022/07/09 00:06:49;;;;;;;4.45;3.28;;;;;;;;;;5027690;28;20117;-56
2022/07/09 00:09:14;;;;;;;6.50;3.53;;;;;;;;;;5023364;28;20036;-57
2022/07/09 00:11:40;;;;;;;4.63;3.30;;;;;;;;;;5024688;28;20037;-56
2022/07/09 00:14:05;;;;;;;7.13;3.45;;;;;;;;;;5026186;28;20405;-57
2022/07/09 00:16:30;;;;;;;7.78;3.45;;;;;;;;;;5025617;28;20036;-56
2022/07/09 00:18:56;;;;;;;8.45;3.60;;;;;;;;;;5021326;28;20092;-57
2022/07/09 00:21:21;;;;;;;10.63;3.42;;;;;;;;;;5025198;28;20124;-56
2022/07/09 00:23:47;;;;;;;6.45;3.25;;;;;;;;;;5025123;28;20467;-56
2022/07/09 00:26:12;;;;;;;7.25;3.40;;;;;;;;;;5021844;28;20030;-57
2022/07/09 00:28:37;;;;;;;9.10;3.83;;;;;;;;;;5027401;28;20028;-57
2022/07/09 00:31:03;;;;;;;4.95;3.65;;;;;;;;;;5025220;28;20037;-57
2022/07/09 00:33:28;;;;;;;7.20;3.70;;;;;;;;;;5025324;28;20112;-56
2022/07/09 00:35:54;;;;;;;6.28;3.22;;;;;;;;;;5030897;28;20509;-57
2022/07/09 00:38:19;;;;;;;10.07;4.00;;;;;;;;;;5031899;28;20134;-58
2022/07/09 00:40:44;;;;;;;6.32;3.67;;;;;;;;;;5030363;28;20390;-56
2022/07/09 00:43:20;;;;;;;6.70;3.58;;;;;;;;;;5029620;28;20029;-57
2022/07/09 00:45:46;;;;;;;8.43;3.65;;;;;;;;;;5030004;28;20055;-57
2022/07/09 00:48:13;;;;;;;6.13;3.40;;;;;;;;;;5029291;28;20124;-55
2022/07/09 00:50:40;;;;;;;5.13;3.50;;;;;;;;;;5029139;28;20398;-56
2022/07/09 00:53:08;;;;;;;5.57;3.58;;;;;;;;;;5026730;28;20207;-56
2022/07/09 00:55:35;;;;;;;8.90;4.45;;;;;;;;;;5028202;28;20063;-56
2022/07/09 00:58:01;;;;;;;7.07;3.80;;;;;;;;;;5029761;28;20029;-57
2022/07/09 01:00:27;;;;;;;9.63;4.38;;;;;;;;;;5030106;28;20064;-57
2022/07/09 01:02:53;;;;;;;5.25;3.65;;;;;;;;;;5026078;28;20445;-57
2022/07/09 01:05:19;;;;;;;8.45;4.03;;;;;;;;;;5027200;28;20492;-57
2022/07/09 01:07:44;;;;;;;7.45;3.97;;;;;;;;;;5025310;28;20095;-57
2022/07/09 01:10:10;;;;;;;8.02;3.50;;;;;;;;;;5028899;28;20079;-56
2022/07/09 01:12:35;;;;;;;4.20;3.70;;;;;;;;;;5026303;28;20032;-56
2022/07/09 01:15:01;;;;;;;7.38;4.05;;;;;;;;;;5027528;28;20493;-57
2022/07/09 01:17:26;;;;;;;8.43;3.85;;;;;;;;;;5028958;28;20387;-56
2022/07/09 01:19:52;;;;;;;5.75;3.90;;;;;;;;;;5027417;28;20025;-56
2022/07/09 01:22:17;;;;;;;9.40;4.00;;;;;;;;;;5028231;28;20110;-57
2022/07/09 01:24:42;;;;;;;9.40;3.92;;;;;;;;;;5029623;28;20095;-57
2022/07/09 01:27:08;;;;;;;5.25;3.55;;;;;;;;;;5030158;28;20399;-57
2022/07/09 01:29:34;;;;;;;5.05;3.33;;;;;;;;;;5025633;28;20032;-56
2022/07/09 01:31:59;;;;;;;8.88;3.97;;;;;;;;;;5030040;28;20033;-57
2022/07/09 01:34:25;;;;;;;6.53;3.70;;;;;;;;;;5022051;28;20114;-57
2022/07/09 01:36:50;;;;;;;4.32;3.58;;;;;;;;;;5025284;28;20032;-57
2022/07/09 01:39:16;;;;;;;9.25;4.13;;;;;;;;;;5027235;28;20024;-56
2022/07/09 01:41:42;;;;;;;7.18;3.80;;;;;;;;;;5027513;28;20025;-57
2022/07/09 01:44:08;;;;;;;6.18;3.47;;;;;;;;;;5029137;28;20127;-57
2022/07/09 01:46:34;;;;;;;4.45;3.22;;;;;;;;;;5028605;28;20076;-57
2022/07/09 01:48:59;;;;;;;4.85;3.55;;;;;;;;;;5028690;28;20143;-57
2022/07/09 01:51:25;;;;;;;5.78;3.75;;;;;;;;;;5031923;28;20111;-57
2022/07/09 01:53:50;;;;;;;6.03;3.33;;;;;;;;;;5028102;28;20514;-57
2022/07/09 01:56:16;;;;;;;6.70;4.00;;;;;;;;;;5026652;28;20026;-57
2022/07/09 01:58:41;;;;;;;8.02;4.50;;;;;;;;;;5028042;28;20112;-57
2022/07/09 02:01:07;;;;;;;7.78;3.42;;;;;;;;;;5024459;28;20037;-57
2022/07/09 02:03:33;;;;;;;6.50;3.47;;;;;;;;;;5027720;28;20029;-56
2022/07/09 02:05:58;;;;;;;4.95;3.75;;;;;;;;;;5024056;28;20459;-56
2022/07/09 02:08:24;;;;;;;5.75;3.80;;;;;;;;;;5025472;28;20022;-57
2022/07/09 02:10:50;;;;;;;6.78;3.63;;;;;;;;;;5025257;28;20036;-56
2022/07/09 02:13:15;;;;;;;6.22;3.30;;;;;;;;;;5023726;28;20025;-56
2022/07/09 02:15:41;;;;;;;6.07;3.72;;;;;;;;;;5028912;28;20035;-56
2022/07/09 02:18:06;;;;;;;5.80;3.65;;;;;;;;;;5024178;28;20030;-56
2022/07/09 02:20:32;;;;;;;7.97;3.75;;;;;;;;;;5027098;28;20495;-57
2022/07/09 02:22:58;;;;;;;7.47;3.88;;;;;;;;;;5023094;28;20226;-56
2022/07/09 02:25:23;;;;;;;6.47;3.70;;;;;;;;;;5027905;28;20033;-57
2022/07/09 02:27:49;;;;;;;10.32;3.47;;;;;;;;;;5024097;28;20038;-56
2022/07/09 02:30:14;;;;;;;7.72;3.92;;;;;;;;;;5024817;28;20136;-56
2022/07/09 02:32:39;;;;;;;4.93;3.72;;;;;;;;;;5028383;28;20021;-56
2022/07/09 02:35:06;;;;;;;10.80;4.35;;;;;;;;;;5028131;28;20075;-57
2022/07/09 02:37:32;;;;;;;6.38;3.75;;;;;;;;;;5021467;28;20082;-57
2022/07/09 02:39:57;;;;;;;6.07;3.95;;;;;;;;;;5028048;28;20021;-56
2022/07/09 02:42:23;;;;;;;5.40;4.07;;;;;;;;;;5027313;28;20081;-57
2022/07/09 02:44:48;;;;;;;6.55;4.10;;;;;;;;;;5028256;28;20029;-56
2022/07/09 02:47:14;;;;;;;6.60;3.72;;;;;;;;;;5025057;28;20194;-57
2022/07/09 02:49:39;;;;;;;7.65;3.90;;;;;;;;;;5026760;28;20056;-56
2022/07/09 02:52:06;;;;;;;5.75;3.60;;;;;;;;;;5023534;28;20111;-57
2022/07/09 02:54:32;;;;;;;6.38;3.95;;;;;;;;;;5026015;28;20032;-58
2022/07/09 02:56:57;;;;;;;6.28;3.55;;;;;;;;;;5024516;28;20033;-57
2022/07/09 02:59:23;;;;;;;5.95;3.90;;;;;;;;;;5024014;28;20040;-56
2022/07/09 03:01:48;;;;;;;8.15;4.10;;;;;;;;;;5023955;28;20088;-56
2022/07/09 03:04:13;;;;;;;5.00;3.92;;;;;;;;;;5024926;28;20051;-56
2022/07/09 03:06:39;;;;;;;6.80;3.38;;;;;;;;;;5024988;28;20021;-56
2022/07/09 03:09:04;;;;;;;7.15;3.60;;;;;;;;;;5023291;28;20033;-57
2022/07/09 03:11:32;;;;;;;9.05;3.60;;;;;;;;;;5019588;28;20031;-57
2022/07/09 03:13:57;;;;;;;7.28;3.97;;;;;;;;;;5026217;28;20099;-57
2022/07/09 03:16:22;;;;;;;5.60;4.00;;;;;;;;;;5025185;28;20041;-56
2022/07/09 03:18:48;;;;;;;6.30;3.95;;;;;;;;;;5023805;28;20104;-56
2022/07/09 03:21:13;;;;;;;8.55;3.97;;;;;;;;;;5023373;28;20040;-56
2022/07/09 03:23:41;;;;;;;4.68;3.72;;;;;;;;;;5028952;28;20037;-56
2022/07/09 03:26:07;;;;;;;7.47;3.78;;;;;;;;;;5025298;28;20024;-56
2022/07/09 03:28:33;;;;;;;9.80;4.03;;;;;;;;;;5018093;28;20030;-56
2022/07/09 03:30:59;;;;;;;7.95;3.58;;;;;;;;;;5023206;28;20038;-56
2022/07/09 03:33:25;;;;;;;9.18;3.25;;;;;;;;;;5030157;28;20095;-56
2022/07/09 03:35:50;;;;;;;6.22;3.33;;;;;;;;;;5026941;28;20057;-56
2022/07/09 03:38:16;;;;;;;5.50;3.50;;;;;;;;;;5027170;28;20061;-57
2022/07/09 03:40:41;;;;;;;7.43;3.67;;;;;;;;;;5027432;28;20029;-56
2022/07/09 03:43:06;;;;;;;5.45;3.50;;;;;;;;;;5026618;28;20448;-57
2022/07/09 03:45:32;;;;;;;9.65;8.85;;;;;;;;;;5027269;28;20045;-56
2022/07/09 03:47:57;;;;;;;8.93;3.97;;;;;;;;;;5025781;28;20515;-56
2022/07/09 03:50:23;;;;;;;5.55;3.97;;;;;;;;;;5023632;28;20033;-56
2022/07/09 03:52:48;;;;;;;9.30;4.10;;;;;;;;;;5024473;28;20396;-57
2022/07/09 03:55:14;;;;;;;13.07;4.30;;;;;;;;;;5026869;28;20021;-57
2022/07/09 03:57:39;;;;;;;6.03;3.90;;;;;;;;;;5026296;28;20039;-56
2022/07/09 04:00:07;;;;;;;6.90;3.97;;;;;;;;;;5021529;28;20109;-56
2022/07/09 04:02:32;;;;;;;5.10;3.70;;;;;;;;;;5026037;28;20471;-56
2022/07/09 04:04:58;;;;;;;6.90;4.45;;;;;;;;;;5029778;28;20174;-56
2022/07/09 04:07:26;;;;;;;11.45;5.43;;;;;;;;;;5027380;28;20419;-56
2022/07/09 04:09:54;;;;;;;5.65;4.15;;;;;;;;;;5023893;28;20038;-56
2022/07/09 04:12:21;;;;;;;7.05;4.13;;;;;;;;;;5024335;28;20165;-56
2022/07/09 04:14:46;;;;;;;9.38;4.50;;;;;;;;;;5027564;28;20021;-56
2022/07/09 04:17:11;;;;;;;6.70;4.53;;;;;;;;;;5030252;28;20029;-56
2022/07/09 04:19:37;;;;;;;8.35;4.38;;;;;;;;;;5024046;28;20060;-57
2022/07/09 04:22:02;;;;;;;11.98;4.85;;;;;;;;;;5026952;28;20026;-56
2022/07/09 04:24:28;;;;;;;11.45;4.68;;;;;;;;;;5029091;28;20406;-58
2022/07/09 04:26:54;;;;;;;11.63;4.18;;;;;;;;;;5030738;28;20444;-56
2022/07/09 04:29:19;;;;;;;8.88;4.63;;;;;;;;;;5030219;28;20557;-56
2022/07/09 04:31:45;;;;;;;7.38;4.70;;;;;;;;;;5030496;28;20025;-57
2022/07/09 04:34:10;;;;;;;6.68;4.18;;;;;;;;;;5031146;28;20062;-56
2022/07/09 04:36:35;;;;;;;7.28;4.00;;;;;;;;;;5030881;28;20034;-57
2022/07/09 04:39:01;;;;;;;5.50;3.80;;;;;;;;;;5030333;28;20712;-56
2022/07/09 04:41:28;;;;;;;8.20;4.72;;;;;;;;;;5027814;28;20111;-56
2022/07/09 04:43:53;;;;;;;8.80;4.10;;;;;;;;;;5030827;28;20095;-56
2022/07/09 04:46:21;;;;;;;8.23;4.22;;;;;;;;;;5028488;28;20476;-57
2022/07/09 04:48:46;;;;;;;8.25;5.07;;;;;;;;;;5027596;28;20029;-56
2022/07/09 04:51:12;;;;;;;7.13;4.40;;;;;;;;;;5024673;28;20096;-56
2022/07/09 04:53:37;;;;;;;8.55;4.85;;;;;;;;;;5028232;28;20029;-56
2022/07/09 04:56:03;;;;;;;8.63;4.93;;;;;;;;;;5028615;28;20099;-56
2022/07/09 04:58:29;;;;;;;8.25;4.88;;;;;;;;;;5027733;28;20072;-56
2022/07/09 05:00:54;;;;;;;11.15;4.53;;;;;;;;;;5024413;28;20036;-56
2022/07/09 05:03:20;;;;;;;6.35;4.22;;;;;;;;;;5026668;28;20029;-59
2022/07/09 05:05:45;;;;;;;10.77;4.75;;;;;;;;;;5026377;28;20028;-59
2022/07/09 05:08:10;;;;;;;7.90;4.80;;;;;;;;;;5030146;28;20066;-59
2022/07/09 05:10:36;;;;;;;7.35;5.03;;;;;;;;;;5024218;28;21771;-59
2022/07/09 05:13:01;;;;;;;9.85;4.70;;;;;;;;;;5023536;28;20509;-60
2022/07/09 05:15:30;;;;;;;6.05;4.90;;;;;;;;;;5029480;28;20044;-60
2022/07/09 05:17:56;;;;;;;11.45;4.38;;;;;;;;;;5025464;28;20402;-60
2022/07/09 05:20:21;;;;;;;7.32;4.60;;;;;;;;;;5025718;28;20037;-60
2022/07/09 05:22:46;;;;;;;8.07;4.80;;;;;;;;;;5023412;28;20191;-60
2022/07/09 05:25:12;;;;;;;8.13;4.20;;;;;;;;;;5030282;28;20588;-60
2022/07/09 05:27:44;;;;;;;8.73;4.45;;;;;;;;;;5027363;28;20029;-60
2022/07/09 05:30:10;;;;;;;7.15;4.70;;;;;;;;;;5023578;28;20037;-60
2022/07/09 05:32:35;;;;;;;5.05;4.40;;;;;;;;;;5029455;28;20038;-59
2022/07/09 05:35:00;;;;;;;6.85;3.97;;;;;;;;;;5029255;28;20036;-59
2022/07/09 05:37:26;;;;;;;9.70;4.38;;;;;;;;;;5030972;28;20033;-59
2022/07/09 05:39:51;;;;;;;9.55;4.88;;;;;;;;;;5027450;28;20084;-59
2022/07/09 05:42:16;;;;;;;10.15;5.40;;;;;;;;;;5025784;28;20069;-59
2022/07/09 05:44:42;;;;;;;7.70;4.85;;;;;;;;;;5028118;28;20060;-59
2022/07/09 05:47:07;;;;;;;10.80;5.00;;;;;;;;;;5030633;28;20373;-59
2022/07/09 05:49:32;;;;;;;9.75;5.15;;;;;;;;;;5028729;28;20033;-59
2022/07/09 05:51:58;;;;;;;8.90;5.05;;;;;;;;;;5027364;28;20029;-59
2022/07/09 05:54:24;;;;;;;9.40;4.93;;;;;;;;;;5025118;28;20035;-59
2022/07/09 05:56:50;;;;;;;10.40;5.95;;;;;;;;;;5026972;28;20079;-59
2022/07/09 05:59:15;;;;;;;10.52;5.13;;;;;;;;;;5028432;28;20390;-59
2022/07/09 06:01:42;;;;;;;8.35;5.45;;;;;;;;;;5024115;28;20032;-59
2022/07/09 06:04:08;;;;;;;8.55;4.70;;;;;;;;;;5026266;28;20029;-59
2022/07/09 06:06:34;;;;;;;11.02;4.90;;;;;;;;;;5027232;28;20056;-59
2022/07/09 06:09:00;;;;;;;8.27;5.10;;;;;;;;;;5030078;28;20475;-59
2022/07/09 06:11:25;;;;;;;10.35;5.20;;;;;;;;;;5023156;28;20463;-59
2022/07/09 06:13:51;;;;;;;8.95;5.15;;;;;;;;;;5026842;28;20028;-59
2022/07/09 06:16:16;;;;;;;9.70;4.90;;;;;;;;;;5025454;28;20546;-59
2022/07/09 06:18:42;;;;;;;7.93;4.93;;;;;;;;;;5029573;28;20033;-59
2022/07/09 06:21:07;;;;;;;7.38;4.47;;;;;;;;;;5023278;28;20340;-59
2022/07/09 06:23:33;;;;;;;9.80;4.90;;;;;;;;;;5025470;28;20036;-59
2022/07/09 06:25:58;;;;;;;7.38;4.47;;;;;;;;;;5023349;28;20163;-59
2022/07/09 06:28:23;;;;;;;7.18;4.82;;;;;;;;;;5024537;28;20091;-59
2022/07/09 06:30:49;;;;;;;6.90;4.47;;;;;;;;;;5029531;28;20621;-60
2022/07/09 06:33:14;;;;;;;8.68;4.90;;;;;;;;;;5028557;28;20542;-60
2022/07/09 06:35:40;;;;;;;6.15;4.50;;;;;;;;;;5028357;28;20034;-60
2022/07/09 06:38:05;;;;;;;9.60;4.60;;;;;;;;;;5026883;28;20057;-60
2022/07/09 06:40:30;;;;;;;6.93;4.18;;;;;;;;;;5026384;28;20032;-60
2022/07/09 06:42:56;;;;;;;7.18;4.15;;;;;;;;;;5025690;28;20028;-60
2022/07/09 06:45:21;;;;;;;7.50;4.40;;;;;;;;;;5027552;28;20057;-60
2022/07/09 06:47:47;;;;;;;8.85;4.50;;;;;;;;;;5026822;28;21592;-60
2022/07/09 06:50:12;;;;;;;8.75;4.32;;;;;;;;;;5027344;28;20053;-59
2022/07/09 06:52:37;;;;;;;7.50;4.25;;;;;;;;;;5026443;28;20029;-60
2022/07/09 06:55:03;;;;;;;6.20;3.80;;;;;;;;;;5025333;28;20022;-60
2022/07/09 06:57:30;;;;;;;6.32;3.78;;;;;;;;;;5025159;28;20030;-60
2022/07/09 06:59:56;;;;;;;6.80;4.18;;;;;;;;;;5018999;28;20029;-60
2022/07/09 07:02:21;;;;;;;7.55;4.10;;;;;;;;;;5016521;28;20018;-60
2022/07/09 07:04:47;;;;;;;5.45;3.70;;;;;;;;;;5018969;28;20032;-60
2022/07/09 07:07:12;;;;;;;10.65;4.32;;;;;;;;;;5019608;28;20727;-60
2022/07/09 07:09:37;;;;;;;7.55;3.75;;;;;;;;;;5020334;28;20024;-60
2022/07/09 07:12:03;;;;;;;8.23;4.00;;;;;;;;;;5022180;28;20040;-60
2022/07/09 07:14:29;;;;;;;8.45;3.92;;;;;;;;;;5021984;28;20991;-60
2022/07/09 07:16:55;;;;;;;7.78;4.95;;;;;;;;;;5022786;28;20479;-59
2022/07/09 07:19:21;;;;;;;7.07;4.05;;;;;;;;;;5026945;28;20398;-59
2022/07/09 07:21:47;;;;;;;10.95;3.63;;;;;;;;;;5019188;28;20029;-59
2022/07/09 07:24:13;;;;;;;8.40;3.33;;;;;;;;;;5025234;28;20031;-60
2022/07/09 07:26:38;;;;;;;9.15;4.03;;;;;;;;;;5028509;28;20025;-59
2022/07/09 07:29:04;;;;;;;6.32;3.85;;;;;;;;;;5022228;28;20029;-59
2022/07/09 07:31:30;;;;;;;7.45;4.13;;;;;;;;;;5024545;28;20087;-59
2022/07/09 07:33:55;;;;;;;10.88;4.38;;;;;;;;;;5026513;28;20022;-61
2022/07/09 07:36:20;;;;;;;7.75;4.40;;;;;;;;;;5027756;28;20445;-60
2022/07/09 07:38:46;;;;;;;20.23;4.80;;;;;;;;;;5029848;28;20055;-60
2022/07/09 07:41:12;;;;;;;6.15;3.95;;;;;;;;;;5028971;28;20651;-60
2022/07/09 07:43:38;;;;;;;9.52;3.90;;;;;;;;;;5030768;28;20471;-60
2022/07/09 07:46:03;;;;;;;5.88;3.92;;;;;;;;;;5019870;28;20044;-60
2022/07/09 07:48:30;;;;;;;9.90;3.97;;;;;;;;;;5025368;28;20444;-60
2022/07/09 07:50:56;;;;;;;5.07;4.05;;;;;;;;;;5028057;28;20434;-60
2022/07/09 07:53:22;;;;;;;9.18;4.10;;;;;;;;;;5029126;28;20033;-60
2022/07/09 07:55:47;;;;;;;8.82;4.03;;;;;;;;;;5029388;28;20159;-60
2022/07/09 07:58:12;;;;;;;6.72;3.97;;;;;;;;;;5030045;28;20123;-60
2022/07/09 08:00:38;;;;;;;5.13;3.70;;;;;;;;;;5028472;28;20021;-60
2022/07/09 08:03:03;;;;;;;10.10;3.70;;;;;;;;;;5029464;28;20037;-60
2022/07/09 08:05:29;;;;;;;7.05;3.65;;;;;;;;;;5027524;28;20186;-59
2022/07/09 08:07:55;;;;;;;11.00;4.03;;;;;;;;;;5024992;28;20110;-60
2022/07/09 08:10:20;;;;;;;7.85;3.45;;;;;;;;;;5026390;28;20534;-59
2022/07/09 08:12:46;;;;;;;8.63;3.63;;;;;;;;;;5030354;28;20075;-59
2022/07/09 08:15:11;;;;;;;7.90;3.67;;;;;;;;;;5027447;28;20391;-59
2022/07/09 08:17:37;;;;;;;7.35;3.75;;;;;;;;;;5031495;28;20125;-60
2022/07/09 08:20:03;;;;;;;7.05;3.72;;;;;;;;;;5026762;28;20034;-60
2022/07/09 08:22:29;;;;;;;7.53;3.88;;;;;;;;;;5030397;28;20360;-58
2022/07/09 08:24:54;;;;;;;5.05;3.60;;;;;;;;;;5024446;28;20112;-57
2022/07/09 08:27:19;;;;;;;7.05;3.28;;;;;;;;;;5026035;28;20585;-57
2022/07/09 08:29:45;;;;;;;5.70;3.55;;;;;;;;;;5030314;28;20137;-59
2022/07/09 08:32:10;;;;;;;5.35;3.10;;;;;;;;;;5027621;28;20030;-57
2022/07/09 08:34:36;;;;;;;5.10;3.20;;;;;;;;;;5027447;28;20088;-58
2022/07/09 08:37:01;;;;;;;6.70;3.72;;;;;;;;;;5029405;28;20103;-58
2022/07/09 08:39:27;;;;;;;8.10;3.85;;;;;;;;;;5028149;28;20104;-58
2022/07/09 08:41:52;;;;;;;6.60;3.20;;;;;;;;;;5029491;28;20049;-58
2022/07/09 08:44:19;;;;;;;8.70;3.40;;;;;;;;;;5031544;28;20033;-57
2022/07/09 08:46:46;;;;;;;4.85;3.25;;;;;;;;;;5029349;28;20026;-58
2022/07/09 08:49:14;;;;;;;6.95;3.28;;;;;;;;;;5028382;28;20018;-58
2022/07/09 08:51:41;;;;;;;4.47;3.17;;;;;;;;;;5026381;28;20033;-58
2022/07/09 08:54:08;;;;;;;9.35;3.53;;;;;;;;;;5027902;28;20029;-57
2022/07/09 08:56:35;;;;;;;5.97;2.90;;;;;;;;;;5029864;28;20049;-57
2022/07/09 08:59:01;;;;;;;7.40;3.15;;;;;;;;;;5024334;28;20053;-57
2022/07/09 09:01:27;;;;;;;3.08;2.50;;;;;;;;;;5025133;28;20242;-59
2022/07/09 09:03:53;;;;;;;6.28;3.10;;;;;;;;;;5028922;28;20083;-59
2022/07/09 09:06:21;;;;;;;5.40;3.08;;;;;;;;;;5030073;28;20037;-58
2022/07/09 09:08:47;;;;;;;7.63;3.38;;;;;;;;;;5023325;28;20029;-58
2022/07/09 09:11:16;;;;;;;7.03;2.63;;;;;;;;;;5027167;28;20036;-59
2022/07/09 09:13:45;;;;;;;;;;;;;;;;;;5026435;28;20029;-59
2022/07/09 09:16:13;;;;;;;8.65;3.08;;;;;;;;;;5025115;28;20442;-57
2022/07/09 09:18:42;;;;;;;5.72;2.90;;;;;;;;;;5022363;28;20064;-57
2022/07/09 09:21:09;;;;;;;8.13;3.05;;;;;;;;;;5022266;28;20518;-58
2022/07/09 09:23:44;;;;;;;8.43;2.90;;;;;;;;;;5022334;28;20079;-57
2022/07/09 09:26:15;;;;;;;5.50;2.67;;;;;;;;;;5028696;28;20530;-58
2022/07/09 09:28:52;;;;;;;5.28;2.75;;;;;;;;;;5029498;28;20430;-58
2022/07/09 09:31:26;;;;;;;3.83;2.72;;;;;;;;;;5028798;28;20457;-58
2022/07/09 09:33:53;;;;;;;6.88;2.50;;;;;;;;;;5020619;28;20120;-58
2022/07/09 09:36:29;;;;;;;4.05;2.22;;;;;;;;;;5022696;28;20033;-58
2022/07/09 09:38:54;;;;;;;3.25;2.30;;;;;;;;;;5024223;28;20112;-58
2022/07/09 09:41:24;;;;;;;4.53;2.67;;;;;;;;;;5027825;28;20124;-58
2022/07/09 09:43:55;;;;;;;7.18;2.50;;;;;;;;;;5029279;28;20029;-58
2022/07/09 09:46:21;;;;;;;7.57;2.30;;;;;;;;;;5027435;28;20451;-58
2022/07/09 09:48:48;;;;;;;5.68;2.30;;;;;;;;;;5027122;28;20065;-57
2022/07/09 09:51:17;;;;;;;4.88;1.90;;;;;;;;;;5028195;28;20032;-58
2022/07/09 09:53:43;;;;;;;4.45;2.17;;;;;;;;;;5026030;28;20029;-57
2022/07/09 09:56:09;;;;;;;6.60;2.00;;;;;;;;;;5028887;28;20099;-53
2022/07/09 09:58:35;;;;;;;8.13;2.25;;;;;;;;;;5029298;28;20036;-52
2022/07/09 10:01:00;;;;;;;6.43;2.55;;;;;;;;;;5025240;28;20116;-53
2022/07/09 10:03:26;;;;;;;4.53;2.00;;;;;;;;;;5025707;28;20438;-53
2022/07/09 10:05:51;;;;;;;7.65;3.58;;;;;;;;;;5021856;28;20553;-53
2022/07/09 10:08:17;;;;;;;8.68;2.95;;;;;;;;;;5022273;28;20062;-50
2022/07/09 10:10:52;;;;;;;10.60;2.83;;;;;;;;;;5023249;28;20124;-51
2022/07/09 10:13:21;;;;;;;6.50;2.40;;;;;;;;;;5024196;28;20395;-52
2022/07/09 10:15:50;;;;;;;6.82;2.13;;;;;;;;;;5020889;28;20029;-52
2022/07/09 10:18:19;;;;;;;8.63;2.60;;;;;;;;;;5026788;28;20033;-51
2022/07/09 10:20:44;;;;;;;10.65;2.45;;;;;;;;;;5022473;28;20037;-50
2022/07/09 10:23:23;;;;;;;7.25;2.38;;;;;;;;;;5022953;28;20529;-53
2022/07/09 10:25:55;;;;;;;8.32;2.75;;;;;;;;;;5028437;28;20092;-53
2022/07/09 10:28:22;;;;;;;5.75;2.20;;;;;;;;;;5030374;28;20116;-53
2022/07/09 10:30:48;;;;;;;4.22;2.20;;;;;;;;;;5028887;28;20029;-55
2022/07/09 10:33:21;;;;;;;4.72;1.90;;;;;;;;;;5028344;28;20100;-55
2022/07/09 10:35:51;;;;;;;1.80;1.60;;;;;;;;;;5028239;28;20028;-52
2022/07/09 10:38:17;;;;;;;8.80;1.85;;;;;;;;;;5027851;28;20112;-53
2022/07/09 10:40:48;;;;;;;3.08;2.00;;;;;;;;;;5026988;28;20044;-53
2022/07/09 10:43:14;;;;;;;3.40;1.90;;;;;;;;;;5026863;28;20441;-53
2022/07/09 10:45:41;;;;;;;3.92;1.92;;;;;;;;;;5027358;28;20108;-52
2022/07/09 10:48:09;;;;;;;4.70;2.10;;;;;;;;;;5024716;28;20022;-55
2022/07/09 10:50:48;;;;;;;8.15;1.83;;;;;;;;;;5025591;28;20021;-53
2022/07/09 10:53:14;;;;;;;7.10;1.98;;;;;;;;;;5022847;28;20026;-60
2022/07/09 10:55:46;;;;;;;4.15;1.83;;;;;;;;;;5028617;28;20570;-53
2022/07/09 10:58:18;;;;;;;4.72;2.10;;;;;;;;;;5024817;28;20045;-59
2022/07/09 11:00:44;;;;;;;3.53;2.10;;;;;;;;;;5021114;28;20036;-61
2022/07/09 11:03:09;;;;;;;3.60;1.90;;;;;;;;;;5020287;28;20033;-62
2022/07/09 11:05:44;;;;;;;2.70;1.50;;;;;;;;;;5026871;28;20021;-63
2022/07/09 11:08:10;;;;;;;2.47;1.33;;;;;;;;;;5027443;28;20021;-57
2022/07/09 11:10:37;;;;;;;4.70;1.58;;;;;;;;;;5020479;28;20029;-57
2022/07/09 11:13:06;;;;;;;3.10;1.20;;;;;;;;;;5022174;28;20072;-57
2022/07/09 11:15:35;;;;;;;3.78;1.10;;;;;;;;;;5022651;28;20033;-58
2022/07/09 11:18:03;;;;;;;4.75;1.23;;;;;;;;;;5022735;28;20029;-58
2022/07/09 11:20:32;;;;;;;1.55;1.13;;;;;;;;;;5022128;28;20396;-57
2022/07/09 11:23:00;;;;;;;2.88;1.20;;;;;;;;;;5028196;28;20037;-57
2022/07/09 11:25:26;;;;;;;3.00;1.30;;;;;;;;;;5029002;28;20021;-57
2022/07/09 11:27:53;;;;;;;3.15;1.17;;;;;;;;;;5023319;28;20037;-56
2022/07/09 11:30:18;;;;;;;3.15;1.13;;;;;;;;;;5028231;28;20476;-56
2022/07/09 11:32:44;;;;;;;3.63;1.00;;;;;;;;;;5026921;28;20029;-56
2022/07/09 11:35:11;;;;;;;3.95;1.30;;;;;;;;;;5025613;28;20029;-56
2022/07/09 11:37:37;;;;;;;4.93;1.30;;;;;;;;;;5026079;28;20021;-56
2022/07/09 11:40:04;;;;;;;4.45;1.05;;;;;;;;;;5023412;28;20044;-58
2022/07/09 11:42:30;;;;;;;2.17;1.02;;;;;;;;;;5023763;28;20046;-57
2022/07/09 11:44:59;;;;;;;2.20;1.20;;;;;;;;;;5026393;28;20035;-57
2022/07/09 11:47:38;;;;;;;2.05;0.80;;;;;;;;;;5025120;28;20034;-57
2022/07/09 11:50:13;;;;;;;2.30;1.00;;;;;;;;;;5020463;28;20044;-58
2022/07/09 11:52:49;;;;;;;1.27;0.82;;;;;;;;;;5022278;28;20033;-58
2022/07/09 11:55:17;;;;;;;2.38;0.95;;;;;;;;;;5021217;28;20053;-58
2022/07/09 11:57:56;;;;;;;;;;;;;;;;;;5027299;28;20104;-57
2022/07/09 12:00:33;;;;;;;2.30;1.40;;;;;;;;;;5031257;28;19995;-58
2022/07/09 12:03:02;;;;;;;1.48;1.00;;;;;;;;;;5026774;28;20120;-57
2022/07/09 12:05:32;;;;;;;1.25;0.98;;;;;;;;;;5028427;28;20029;-57
2022/07/09 12:07:59;;;;;;;5.55;1.30;;;;;;;;;;5019963;28;20105;-59
2022/07/09 12:10:36;;;;;;;2.13;1.10;;;;;;;;;;5022394;28;20407;-59
2022/07/09 12:13:03;;;;;;;2.28;1.10;;;;;;;;;;5021801;28;20029;-58
2022/07/09 12:15:29;;;;;;;2.28;1.13;;;;;;;;;;5021582;28;20022;-58
2022/07/09 12:18:01;;;;;;;2.83;1.60;;;;;;;;;;5021486;28;20096;-58
2022/07/09 12:20:28;;;;;;;3.15;1.83;;;;;;;;;;5027995;28;20402;-58
2022/07/09 12:22:55;;;;;;;2.13;1.15;;;;;;;;;;5021625;28;20033;-58
2022/07/09 12:25:21;;;;;;;1.73;1.20;;;;;;;;;;5026325;28;20030;-59
2022/07/09 12:27:47;;;;;;;2.97;1.73;;;;;;;;;;5025472;28;20084;-60
2022/07/09 12:30:13;;;;;;;3.45;1.60;;;;;;;;;;5029077;28;20128;-57
2022/07/09 12:32:39;;;;;;;3.53;1.58;;;;;;;;;;5028176;28;20121;-58
2022/07/09 12:35:06;;;;;;;2.60;1.63;;;;;;;;;;5027323;28;20033;-57
2022/07/09 12:37:31;;;;;;;3.13;1.60;;;;;;;;;;5026182;28;20049;-59
2022/07/09 12:39:56;;;;;;;2.63;1.60;;;;;;;;;;5025750;28;20068;-57
2022/07/09 12:42:22;;;;;;;3.13;1.90;;;;;;;;;;5028859;28;20456;-57
2022/07/09 12:44:48;;;;;;;3.35;1.55;;;;;;;;;;5026828;28;20041;-58
2022/07/09 12:47:14;;;;;;;9.00;1.83;;;;;;;;;;5026136;28;20060;-58
2022/07/09 12:49:39;;;;;;;4.95;1.88;;;;;;;;;;5025796;28;20044;-58
2022/07/09 12:52:05;;;;;;;2.63;1.70;;;;;;;;;;5026128;28;20071;-58
2022/07/09 12:54:31;;;;;;;3.70;1.80;;;;;;;;;;5029536;28;20029;-58
2022/07/09 12:56:56;;;;;;;2.97;1.55;;;;;;;;;;5024364;28;20056;-57
2022/07/09 12:59:22;;;;;;;4.35;1.85;;;;;;;;;;5030158;28;20495;-58
2022/07/09 13:01:48;;;;;;;3.75;1.60;;;;;;;;;;5027417;28;20159;-58
2022/07/09 13:04:14;;;;;;;3.38;1.70;;;;;;;;;;5024425;28;20491;-59
2022/07/09 13:06:40;;;;;;;2.95;1.30;;;;;;;;;;5025986;28;20026;-58
2022/07/09 13:09:07;;;;;;;9.45;1.80;;;;;;;;;;5028865;28;20024;-57
2022/07/09 13:11:33;;;;;;;2.85;1.50;;;;;;;;;;5026207;28;20022;-58
2022/07/09 13:13:58;;;;;;;4.68;1.60;;;;;;;;;;5031396;28;20021;-57
2022/07/09 13:16:24;;;;;;;4.68;1.52;;;;;;;;;;5029106;28;20033;-57
2022/07/09 13:18:51;;;;;;;5.30;1.88;;;;;;;;;;5024598;28;20388;-57
2022/07/09 13:21:19;;;;;;;6.45;2.10;;;;;;;;;;5026716;28;20033;-57
2022/07/09 13:23:45;;;;;;;2.80;1.70;;;;;;;;;;5031350;28;20021;-58
2022/07/09 13:26:10;;;;;;;4.00;1.98;;;;;;;;;;5029507;28;20037;-58
2022/07/09 13:28:36;;;;;;;4.35;1.80;;;;;;;;;;5031117;28;20108;-57
2022/07/09 13:31:01;;;;;;;3.65;1.88;;;;;;;;;;5029818;28;20561;-58
2022/07/09 13:33:27;;;;;;;2.50;1.65;;;;;;;;;;5029415;28;20025;-58
2022/07/09 13:35:52;;;;;;;4.65;1.88;;;;;;;;;;5027498;28;20025;-59
2022/07/09 13:38:17;;;;;;;4.80;1.83;;;;;;;;;;5026131;28;20372;-58
2022/07/09 13:40:43;;;;;;;5.28;2.60;;;;;;;;;;5026399;28;20040;-57
2022/07/09 13:43:08;;;;;;;5.22;2.30;;;;;;;;;;5030982;28;20072;-57
2022/07/09 13:45:34;;;;;;;7.38;2.15;;;;;;;;;;5026123;28;20029;-57
2022/07/09 13:47:59;;;;;;;4.38;1.80;;;;;;;;;;5025237;28;20431;-57
2022/07/09 13:50:25;;;;;;;6.40;2.35;;;;;;;;;;5027941;28;20087;-56
2022/07/09 13:52:50;;;;;;;6.22;2.28;;;;;;;;;;5028055;28;20026;-58
2022/07/09 13:55:16;;;;;;;5.70;2.45;;;;;;;;;;5025621;28;20092;-58
2022/07/09 13:57:41;;;;;;;4.07;2.10;;;;;;;;;;5028625;28;20032;-58
2022/07/09 14:00:08;;;;;;;3.63;2.00;;;;;;;;;;5026156;28;20025;-57
2022/07/09 14:02:34;;;;;;;4.22;1.95;;;;;;;;;;5028505;28;20116;-58
2022/07/09 14:05:02;;;;;;;3.50;1.90;;;;;;;;;;5029572;28;20526;-58
2022/07/09 14:07:28;;;;;;;3.25;1.88;;;;;;;;;;5024765;28;20486;-55
2022/07/09 14:09:53;;;;;;;4.50;2.05;;;;;;;;;;5023486;28;20048;-58
2022/07/09 14:12:20;;;;;;;2.53;2.10;;;;;;;;;;5022796;28;20044;-58
2022/07/09 14:14:45;;;;;;;9.30;1.95;;;;;;;;;;5030922;28;20031;-58
2022/07/09 14:17:11;;;;;;;4.72;2.30;;;;;;;;;;5029698;28;20025;-58
2022/07/09 14:19:36;;;;;;;3.83;2.00;;;;;;;;;;5027744;28;20060;-57
2022/07/09 14:22:02;;;;;;;3.97;2.25;;;;;;;;;;5029610;28;20479;-58
2022/07/09 14:24:28;;;;;;;3.70;1.92;;;;;;;;;;5030443;28;20091;-58
2022/07/09 14:26:53;;;;;;;3.38;2.05;;;;;;;;;;5029843;28;20029;-57
2022/07/09 14:29:18;;;;;;;4.93;2.33;;;;;;;;;;5026843;28;20124;-58
2022/07/09 14:31:44;;;;;;;3.33;2.05;;;;;;;;;;5027874;28;20037;-57
2022/07/09 14:34:09;;;;;;;4.50;1.80;;;;;;;;;;5027354;28;20036;-58
2022/07/09 14:36:35;;;;;;;4.25;2.10;;;;;;;;;;5027311;28;20040;-58
2022/07/09 14:39:02;;;;;;;7.63;2.30;;;;;;;;;;5028335;28;20052;-57